Time;durP1;ratioP1;P1;durP2;ratioP2;P2;SDS_P1;SDS_P2;PMS_P1;PMS_P2;Temp;Humidity;BMP_temperature;BMP_pressure;BME280_temperature;BME280_humidity;BME280_pressure;Samples;Min_cycle;Max_cycle;Signal;HPM_P1;HPM_P2
2021/10/26 00:01:21;;;;;;;10.00;1.30;;;;;;;8.27;72.78;100133.09;4983579;28;20071;-48
2021/10/26 00:03:48;;;;;;;6.05;1.17;;;;;;;8.26;73.54;100133.91;4990403;28;20054;-47
2021/10/26 00:06:14;;;;;;;7.32;1.15;;;;;;;8.30;73.77;100143.41;4989278;28;20438;-47
2021/10/26 00:08:41;;;;;;;3.60;1.45;;;;;;;8.30;73.24;100135.66;4994295;28;20097;-48
2021/10/26 00:11:08;;;;;;;2.83;0.90;;;;;;;8.32;72.78;100140.00;4985609;28;20050;-47
2021/10/26 00:13:35;;;;;;;4.55;1.25;;;;;;;8.33;74.25;100133.13;4986969;28;20050;-47
2021/10/26 00:16:04;;;;;;;7.10;1.15;;;;;;;8.33;73.67;100130.53;4989072;28;20042;-48
2021/10/26 00:18:30;;;;;;;4.53;0.82;;;;;;;8.34;73.50;100124.50;4987971;28;20484;-47
2021/10/26 00:20:57;;;;;;;9.68;2.40;;;;;;;8.34;74.10;100124.50;4989631;28;20690;-47
2021/10/26 00:23:23;;;;;;;5.00;1.20;;;;;;;8.32;72.95;100127.09;4986162;28;20112;-48
2021/10/26 00:25:50;;;;;;;4.65;1.23;;;;;;;8.32;74.22;100128.81;4988185;28;20457;-47
2021/10/26 00:28:17;;;;;;;4.20;1.05;;;;;;;8.33;73.12;100138.28;4986304;28;20585;-48
2021/10/26 00:30:43;;;;;;;5.07;1.05;;;;;;;8.30;74.86;100138.25;4989758;28;20579;-48
2021/10/26 00:33:10;;;;;;;4.75;1.63;;;;;;;8.32;73.84;100136.56;4983121;28;20070;-48
2021/10/26 00:35:37;;;;;;;7.88;1.17;;;;;;;8.31;73.25;100140.84;4989945;28;20483;-47
2021/10/26 00:38:03;;;;;;;5.95;1.58;;;;;;;8.33;73.63;100146.03;4992057;28;20050;-47
2021/10/26 00:40:30;;;;;;;2.47;0.88;;;;;;;8.32;73.41;100141.72;4983878;28;20062;-47
2021/10/26 00:42:57;;;;;;;8.75;0.88;;;;;;;8.31;73.66;100145.16;4991308;28;20054;-48
2021/10/26 00:45:23;;;;;;;2.65;0.73;;;;;;;8.30;73.50;100144.28;4985952;28;20054;-47
2021/10/26 00:47:50;;;;;;;4.40;1.00;;;;;;;8.31;74.39;100143.44;4998036;28;20656;-47
2021/10/26 00:50:16;;;;;;;6.65;0.90;;;;;;;8.32;73.50;100141.72;4986137;28;20054;-46
2021/10/26 00:52:45;;;;;;;8.55;1.23;;;;;;;8.34;73.82;100145.16;4987328;28;20049;-50
2021/10/26 00:55:12;;;;;;;3.10;1.13;;;;;;;8.34;74.68;100142.56;4985678;28;20042;-49
2021/10/26 00:57:39;;;;;;;3.58;1.17;;;;;;;8.36;75.01;100153.78;4990393;28;20077;-47
2021/10/26 01:00:07;;;;;;;5.78;1.48;;;;;;;8.34;73.77;100147.75;4991313;28;20045;-47
2021/10/26 01:02:34;;;;;;;5.97;0.70;;;;;;;8.36;74.91;100153.78;4989775;28;20101;-47
2021/10/26 01:05:03;;;;;;;7.47;1.33;;;;;;;8.36;74.40;100149.50;4986976;28;20124;-47
2021/10/26 01:07:29;;;;;;;6.22;1.08;;;;;;;8.38;74.92;100157.25;4984715;28;20752;-47
2021/10/26 01:09:57;;;;;;;4.10;1.27;;;;;;;8.40;74.67;100145.22;4988619;28;20053;-48
2021/10/26 01:12:23;;;;;;;4.82;1.25;;;;;;;8.42;74.68;100159.03;4987437;28;20538;-47
2021/10/26 01:14:51;;;;;;;2.45;0.82;;;;;;;8.41;75.15;100157.25;4992837;28;20274;-48
2021/10/26 01:17:17;;;;;;;4.18;1.15;;;;;;;8.42;74.22;100161.59;4987652;28;20105;-48
2021/10/26 01:19:46;;;;;;;4.53;1.42;;;;;;;8.43;74.02;100154.69;4990211;28;20538;-49
2021/10/26 01:22:14;;;;;;;6.22;1.00;;;;;;;8.44;74.78;100162.47;4984783;28;20050;-48
2021/10/26 01:24:41;;;;;;;3.90;0.75;;;;;;;8.44;74.23;100151.28;4987199;28;20047;-48
2021/10/26 01:27:08;;;;;;;4.18;1.08;;;;;;;8.46;74.88;100154.72;4985503;28;20095;-47
2021/10/26 01:29:35;;;;;;;7.25;0.93;;;;;;;8.47;75.33;100140.97;4989687;28;20054;-47
2021/10/26 01:32:04;;;;;;;4.70;1.38;;;;;;;8.46;74.30;100145.28;4988399;28;20046;-48
2021/10/26 01:34:31;;;;;;;8.45;1.08;;;;;;;8.49;74.75;100157.34;4978508;28;20748;-48
2021/10/26 01:37:00;;;;;;;4.63;1.05;;;;;;;8.51;74.73;100162.53;4985878;28;20112;-47
2021/10/26 01:39:28;;;;;;;3.72;1.30;;;;;;;8.51;74.80;100159.94;4987774;28;20112;-47
2021/10/26 01:41:57;;;;;;;8.15;0.85;;;;;;;8.54;74.32;100162.56;4988670;28;20043;-47
2021/10/26 01:44:24;;;;;;;4.82;1.30;;;;;;;8.52;74.00;100149.63;4996054;28;20046;-47
2021/10/26 01:46:52;;;;;;;8.70;1.08;;;;;;;8.51;75.20;100147.03;4985214;28;20054;-48
2021/10/26 01:49:20;;;;;;;4.97;1.00;;;;;;;8.52;74.30;100139.31;4988699;28;20077;-47
2021/10/26 01:51:47;;;;;;;2.72;0.90;;;;;;;8.53;74.47;100137.56;4993110;28;20058;-47
2021/10/26 01:54:16;;;;;;;4.05;1.00;;;;;;;8.52;74.87;100138.41;4989185;28;20046;-48
2021/10/26 01:56:43;;;;;;;4.78;1.30;;;;;;;8.52;75.30;100149.63;4992529;28;20066;-47
2021/10/26 01:59:14;;;;;;;7.63;1.08;;;;;;;8.53;74.28;100140.16;5000664;28;20058;-47
2021/10/26 02:01:41;;;;;;;7.45;1.42;;;;;;;8.53;75.35;100140.16;4992657;28;20104;-47
2021/10/26 02:04:08;;;;;;;4.13;1.23;;;;;;;8.52;74.98;100143.59;4990390;28;20057;-47
2021/10/26 02:06:34;;;;;;;6.10;0.95;;;;;;;8.54;75.46;100141.94;4988703;28;20057;-48
2021/10/26 02:09:02;;;;;;;6.93;1.08;;;;;;;8.55;75.02;100138.47;4987349;28;20050;-49
2021/10/26 02:11:28;;;;;;;2.90;1.33;;;;;;;8.55;75.13;100135.91;4998830;28;20108;-48
2021/10/26 02:13:55;;;;;;;6.15;1.45;;;;;;;8.57;75.66;100131.59;4991865;28;20054;-47
2021/10/26 02:16:22;;;;;;;3.50;1.38;;;;;;;8.59;75.66;100129.91;4993113;28;20099;-48
2021/10/26 02:18:49;;;;;;;6.78;1.23;;;;;;;8.59;75.17;100135.06;4996331;28;20144;-47
2021/10/26 02:21:19;;;;;;;4.10;1.55;;;;;;;8.61;75.04;100133.34;4987723;28;20100;-46
2021/10/26 02:23:46;;;;;;;5.10;1.30;;;;;;;8.63;75.09;100141.97;4998261;28;20514;-47
2021/10/26 02:26:14;;;;;;;3.53;1.15;;;;;;;8.64;75.02;100138.53;4990093;28;20105;-47
2021/10/26 02:28:42;;;;;;;8.13;1.55;;;;;;;8.67;75.28;100133.41;5002162;28;20045;-46
2021/10/26 02:31:09;;;;;;;4.05;1.30;;;;;;;8.70;75.66;100128.25;4989220;28;20051;-47
2021/10/26 02:33:36;;;;;;;6.80;1.25;;;;;;;8.73;75.49;100123.13;5003693;28;20056;-47
2021/10/26 02:36:04;;;;;;;5.70;1.33;;;;;;;8.76;75.22;100116.22;4983995;28;20046;-48
2021/10/26 02:38:30;;;;;;;11.20;2.42;;;;;;;8.76;75.44;100111.06;4990669;28;20788;-47
2021/10/26 02:40:57;;;;;;;5.47;1.30;;;;;;;8.80;75.24;100123.13;4992627;28;20060;-47
2021/10/26 02:43:25;;;;;;;7.85;1.40;;;;;;;8.80;75.13;100124.00;4991799;28;20104;-48
2021/10/26 02:45:52;;;;;;;7.90;2.72;;;;;;;8.83;75.17;100118.88;4987077;28;20050;-50
2021/10/26 02:48:18;;;;;;;5.18;1.65;;;;;;;8.87;76.02;100114.56;4988282;28;20081;-49
2021/10/26 02:50:45;;;;;;;4.13;1.52;;;;;;;8.87;74.88;100114.56;4989030;28;20863;-47
2021/10/26 02:53:14;;;;;;;7.07;1.33;;;;;;;8.87;75.96;100110.28;4987820;28;20093;-47
2021/10/26 02:55:40;;;;;;;6.47;1.67;;;;;;;8.89;75.19;100107.72;4991995;28;20050;-47
2021/10/26 02:58:07;;;;;;;6.53;1.58;;;;;;;8.88;75.88;100095.63;4989090;28;20093;-47
2021/10/26 03:00:34;;;;;;;5.80;1.58;;;;;;;8.89;75.09;100096.50;4997280;28;20491;-47
2021/10/26 03:03:01;;;;;;;6.32;1.70;;;;;;;8.87;76.20;100089.63;4992032;28;20082;-46
2021/10/26 03:05:27;;;;;;;7.13;2.10;;;;;;;8.89;75.27;100091.34;4982232;28;20108;-48
2021/10/26 03:07:54;;;;;;;8.27;2.42;;;;;;;8.87;75.39;100089.63;4992442;28;20081;-47
2021/10/26 03:10:20;;;;;;;8.93;2.08;;;;;;;8.89;75.40;100092.22;4986373;28;20054;-46
2021/10/26 03:12:47;;;;;;;7.80;2.13;;;;;;;8.88;76.50;100098.22;4999624;28;20092;-47
2021/10/26 03:15:14;;;;;;;10.48;1.85;;;;;;;8.88;76.13;100100.78;4987901;28;20055;-47
2021/10/26 03:17:40;;;;;;;6.88;2.17;;;;;;;8.90;76.57;100101.69;4989310;28;20110;-47
2021/10/26 03:20:08;;;;;;;4.82;2.20;;;;;;;8.90;76.50;100104.25;4987947;28;20093;-47
2021/10/26 03:22:35;;;;;;;8.65;2.67;;;;;;;8.90;76.29;100109.44;4986720;28;20058;-48
2021/10/26 03:25:03;;;;;;;11.07;2.08;;;;;;;8.92;75.46;100112.88;4991302;28;20046;-47
2021/10/26 03:27:30;;;;;;;5.40;1.58;;;;;;;8.93;76.26;100118.91;4987725;28;20050;-48
2021/10/26 03:29:59;;;;;;;5.30;1.92;;;;;;;8.95;76.04;100114.63;5001992;28;20120;-46
2021/10/26 03:32:26;;;;;;;4.55;2.00;;;;;;;8.94;75.99;100111.16;4986661;28;20464;-47
2021/10/26 03:34:53;;;;;;;6.72;2.63;;;;;;;8.94;76.82;100111.16;4985615;28;20101;-47
2021/10/26 03:37:20;;;;;;;4.78;1.92;;;;;;;8.95;76.15;100102.56;4988587;28;20050;-48
2021/10/26 03:39:53;;;;;;;7.05;2.00;;;;;;;8.96;75.99;100104.31;4997226;28;20100;-48
2021/10/26 03:42:21;;;;;;;4.57;1.67;;;;;;;8.96;76.16;100100.84;4989848;28;20156;-46
2021/10/26 03:44:48;;;;;;;7.75;2.05;;;;;;;8.98;75.82;100102.56;4989598;28;20628;-47
2021/10/26 03:47:15;;;;;;;7.47;1.60;;;;;;;9.01;75.92;100106.88;4989691;28;20051;-48
2021/10/26 03:49:42;;;;;;;8.85;2.35;;;;;;;8.99;76.48;100104.28;4985287;28;20477;-47
2021/10/26 03:52:09;;;;;;;7.05;1.92;;;;;;;9.00;76.21;100111.22;4988727;28;20113;-47
2021/10/26 03:54:36;;;;;;;8.98;1.85;;;;;;;9.00;76.57;100115.50;4991544;28;20054;-47
2021/10/26 03:57:08;;;;;;;7.30;1.83;;;;;;;9.00;75.86;100108.63;4991410;28;20450;-47
2021/10/26 03:59:35;;;;;;;8.50;1.83;;;;;;;9.02;76.01;100112.94;4990048;28;20416;-47
2021/10/26 04:02:08;;;;;;;9.05;1.83;;;;;;;9.02;75.82;100112.94;4985549;28;20565;-47
2021/10/26 04:04:36;;;;;;;6.55;1.98;;;;;;;9.00;76.29;100113.78;4987981;28;20052;-47
2021/10/26 04:07:05;;;;;;;5.47;2.08;;;;;;;9.02;76.56;100120.69;4983304;28;20046;-46
2021/10/26 04:10:00;;;;;;;7.80;1.83;;;;;;;9.01;76.75;100112.06;4992042;28;20101;-47
2021/10/26 04:12:25;;;;;;;8.07;1.40;;;;;;;8.98;76.32;100106.88;4996824;28;20050;-47
2021/10/26 04:14:55;;;;;;;5.65;1.42;;;;;;;8.98;76.02;100107.75;4989884;28;20101;-48
2021/10/26 04:17:23;;;;;;;5.50;1.30;;;;;;;8.97;76.40;100115.47;4999153;28;20047;-47
2021/10/26 04:19:53;;;;;;;6.10;1.58;;;;;;;8.95;76.63;100123.22;4987918;28;20046;-47
2021/10/26 04:22:21;;;;;;;8.15;1.92;;;;;;;8.93;75.87;100124.94;4993200;28;20057;-48
2021/10/26 04:24:49;;;;;;;6.80;1.60;;;;;;;8.94;76.98;100131.84;5004797;28;20050;-48
2021/10/26 04:27:17;;;;;;;5.75;1.48;;;;;;;8.94;77.02;100136.13;4988977;28;20054;-46
2021/10/26 04:29:45;;;;;;;5.70;1.73;;;;;;;8.94;76.33;100131.84;4987504;28;20100;-46
2021/10/26 04:32:13;;;;;;;4.93;1.95;;;;;;;8.96;76.59;100132.72;4984152;28;20565;-47
2021/10/26 04:34:40;;;;;;;8.38;1.60;;;;;;;8.96;75.91;100148.22;4998560;28;20041;-47
2021/10/26 04:37:09;;;;;;;6.05;1.25;;;;;;;8.96;76.21;100148.22;4980247;28;20046;-47
2021/10/26 04:39:41;;;;;;;6.45;1.75;;;;;;;8.96;76.52;100145.63;4988593;28;20561;-47
2021/10/26 04:42:09;;;;;;;9.45;1.30;;;;;;;8.95;76.75;100140.47;4987782;28;20483;-47
2021/10/26 04:44:36;;;;;;;10.98;1.60;;;;;;;8.95;76.19;100149.06;4989286;28;20050;-47
2021/10/26 04:47:04;;;;;;;6.97;1.45;;;;;;;8.96;76.35;100149.94;4999713;28;20043;-47
2021/10/26 04:49:31;;;;;;;5.22;1.48;;;;;;;8.98;75.74;100159.41;4990768;28;20120;-46
2021/10/26 04:51:57;;;;;;;4.47;1.30;;;;;;;8.98;76.39;100159.41;4993635;28;20050;-46
2021/10/26 04:54:24;;;;;;;5.82;1.75;;;;;;;8.98;75.44;100148.19;4989747;28;20144;-46
2021/10/26 04:56:50;;;;;;;5.18;1.83;;;;;;;8.97;75.97;100152.53;4996452;28;20046;-47
2021/10/26 04:59:17;;;;;;;3.33;1.10;;;;;;;8.96;76.27;100157.69;4986109;28;20062;-46
2021/10/26 05:01:44;;;;;;;4.38;0.95;;;;;;;8.95;76.21;100159.38;4990576;28;20046;-49
2021/10/26 05:04:11;;;;;;;6.75;1.42;;;;;;;8.92;76.32;100154.19;4988109;28;20050;-47
2021/10/26 05:06:38;;;;;;;3.85;1.58;;;;;;;8.91;76.14;100157.63;4991856;28;21073;-47
2021/10/26 05:09:04;;;;;;;4.80;1.25;;;;;;;8.90;76.28;100163.66;4990436;28;20593;-47
2021/10/26 05:11:31;;;;;;;6.78;1.35;;;;;;;8.90;75.56;100158.50;4986350;28;20404;-48
2021/10/26 05:13:57;;;;;;;2.40;1.00;;;;;;;8.87;76.46;100154.19;4987570;28;20062;-48
2021/10/26 05:16:26;;;;;;;4.50;1.05;;;;;;;8.88;75.88;100152.44;4982114;28;20106;-48
2021/10/26 05:18:56;;;;;;;6.13;1.20;;;;;;;8.88;76.38;100157.63;4982405;28;20054;-47
2021/10/26 05:21:23;;;;;;;;;;;;;;;8.78;77.50;100171.34;4982501;28;20070;-47
2021/10/26 05:23:50;;;;;;;4.85;1.33;;;;;;;8.85;76.32;100168.81;4983843;28;19929;-47
2021/10/26 05:26:18;;;;;;;3.38;1.25;;;;;;;8.88;76.30;100162.78;4979131;28;20042;-47
2021/10/26 05:28:47;;;;;;;4.65;1.23;;;;;;;8.90;76.58;100166.25;4986778;28;20109;-48
2021/10/26 05:31:14;;;;;;;7.40;1.35;;;;;;;8.92;76.72;100166.28;4988013;28;20054;-47
2021/10/26 05:33:42;;;;;;;5.90;1.15;;;;;;;8.95;76.02;100159.38;4988539;28;20553;-49
2021/10/26 05:36:10;;;;;;;6.50;1.42;;;;;;;8.97;76.75;100162.84;4985030;28;20053;-47
2021/10/26 05:38:37;;;;;;;7.35;1.55;;;;;;;9.00;75.99;100160.28;4982213;28;20058;-47
2021/10/26 05:41:04;;;;;;;4.22;1.30;;;;;;;9.02;76.11;100151.69;4985222;28;20078;-48
2021/10/26 05:43:30;;;;;;;5.90;1.67;;;;;;;9.03;76.29;100150.81;4985334;28;20677;-46
2021/10/26 05:45:58;;;;;;;7.15;1.23;;;;;;;9.04;76.46;100153.41;4988810;28;20054;-49
2021/10/26 05:48:25;;;;;;;3.53;1.45;;;;;;;9.07;76.70;100157.72;4986675;28;20046;-47
2021/10/26 05:50:51;;;;;;;7.55;1.73;;;;;;;9.08;76.07;100149.09;4984671;28;20081;-47
2021/10/26 05:53:18;;;;;;;3.42;1.67;;;;;;;9.09;76.33;100154.28;4981715;28;20054;-47
2021/10/26 05:55:45;;;;;;;8.00;1.50;;;;;;;9.12;76.06;100145.72;4983320;28;20611;-47
2021/10/26 05:58:12;;;;;;;8.32;1.55;;;;;;;9.14;76.58;100143.97;4990374;28;20120;-46
2021/10/26 06:00:40;;;;;;;3.83;1.40;;;;;;;9.16;76.88;100141.41;4986827;28;20574;-47
2021/10/26 06:03:07;;;;;;;10.65;2.20;;;;;;;9.18;76.54;100150.06;4991234;28;20505;-47
2021/10/26 06:05:34;;;;;;;9.75;2.13;;;;;;;9.19;76.60;100142.28;4985791;28;20081;-48
2021/10/26 06:08:01;;;;;;;7.55;1.52;;;;;;;9.21;76.05;100144.88;4986285;28;20046;-47
2021/10/26 06:10:29;;;;;;;3.72;1.48;;;;;;;9.21;76.35;100144.88;4987458;28;20046;-48
2021/10/26 06:12:59;;;;;;;3.50;1.45;;;;;;;9.22;76.87;100144.88;4983319;28;20050;-48
2021/10/26 06:15:25;;;;;;;;;;;;;;;9.13;77.09;100137.94;4991756;28;20120;-47
2021/10/26 06:17:52;;;;;;;5.53;1.38;;;;;;;9.22;76.15;100137.13;4988180;28;19922;-46
2021/10/26 06:20:19;;;;;;;7.22;2.65;;;;;;;9.24;76.40;100145.75;4987212;28;20438;-47
2021/10/26 06:22:45;;;;;;;3.28;1.48;;;;;;;9.26;76.64;100138.03;4989087;28;20058;-47
2021/10/26 06:25:12;;;;;;;8.75;1.95;;;;;;;9.30;77.44;100141.47;4992116;28;20050;-48
2021/10/26 06:27:41;;;;;;;5.30;2.03;;;;;;;9.33;76.95;100144.06;4985602;28;20053;-47
2021/10/26 06:30:08;;;;;;;8.50;2.03;;;;;;;9.34;76.60;100138.03;4993340;28;20092;-47
2021/10/26 06:32:41;;;;;;;6.38;2.17;;;;;;;9.34;76.79;100145.78;4990776;28;20127;-47
2021/10/26 06:35:10;;;;;;;7.82;1.95;;;;;;;9.36;77.21;100144.09;4998350;28;20047;-46
2021/10/26 06:37:40;;;;;;;9.10;2.58;;;;;;;9.38;76.83;100150.09;4990029;28;20100;-47
2021/10/26 06:40:07;;;;;;;5.45;2.10;;;;;;;9.39;76.31;100149.25;4985282;28;20496;-46
2021/10/26 06:42:34;;;;;;;8.25;2.75;;;;;;;9.40;76.64;100151.00;4996547;28;20049;-48
2021/10/26 06:45:02;;;;;;;5.85;1.90;;;;;;;9.41;76.57;100136.31;4995483;28;20050;-47
2021/10/26 06:47:29;;;;;;;5.38;1.67;;;;;;;9.42;77.18;100154.44;4996096;28;20050;-48
2021/10/26 06:49:55;;;;;;;7.07;2.30;;;;;;;9.44;77.35;100147.56;4985229;28;20058;-48
2021/10/26 06:52:22;;;;;;;8.07;1.90;;;;;;;9.45;76.97;100148.41;4984974;28;20058;-47
2021/10/26 06:54:51;;;;;;;7.28;2.05;;;;;;;9.47;76.87;100157.91;4983751;28;20046;-47
2021/10/26 06:57:20;;;;;;;5.75;1.63;;;;;;;9.49;76.49;100157.94;4993510;28;20046;-47
2021/10/26 06:59:47;;;;;;;5.50;1.88;;;;;;;9.49;76.98;100143.25;4987702;28;20054;-46
2021/10/26 07:02:14;;;;;;;10.93;1.70;;;;;;;9.51;76.95;100149.31;4987653;28;20100;-47
2021/10/26 07:04:40;;;;;;;5.75;2.03;;;;;;;9.52;76.79;100140.69;4989582;28;20038;-47
2021/10/26 07:07:07;;;;;;;6.35;2.15;;;;;;;9.57;77.23;100152.75;4987288;28;20070;-48
2021/10/26 07:09:33;;;;;;;6.75;2.13;;;;;;;9.57;76.62;100147.59;4980960;28;20050;-46
2021/10/26 07:12:00;;;;;;;5.30;2.42;;;;;;;9.57;76.94;100145.88;4989485;28;20046;-48
2021/10/26 07:14:27;;;;;;;10.00;2.40;;;;;;;9.58;77.11;100149.31;4989263;28;20445;-47
2021/10/26 07:16:54;;;;;;;8.38;1.92;;;;;;;9.61;77.17;100154.50;4991800;28;20054;-47
2021/10/26 07:19:21;;;;;;;4.07;1.73;;;;;;;9.61;77.15;100164.84;4990727;28;20054;-47
2021/10/26 07:21:47;;;;;;;4.75;2.53;;;;;;;9.64;77.23;100164.84;4991761;28;20108;-48
2021/10/26 07:24:14;;;;;;;5.35;1.77;;;;;;;9.66;77.03;100151.94;4987241;28;20050;-47
2021/10/26 07:26:41;;;;;;;9.27;1.77;;;;;;;9.69;77.09;100163.13;4988149;28;20100;-47
2021/10/26 07:29:08;;;;;;;6.93;1.88;;;;;;;9.70;77.24;100170.06;4993879;28;20821;-47
2021/10/26 07:31:35;;;;;;;7.40;2.17;;;;;;;9.73;77.13;100162.28;4988958;28;20132;-47
2021/10/26 07:34:02;;;;;;;4.95;2.15;;;;;;;9.76;77.19;100164.00;4996747;28;20050;-47
2021/10/26 07:36:49;;;;;;;5.55;1.63;;;;;;;9.79;76.92;100165.78;4984126;28;20052;-46
2021/10/26 07:39:35;;;;;;;6.70;2.17;;;;;;;9.79;76.99;100174.38;4978859;28;20442;-47
2021/10/26 07:42:02;;;;;;;7.57;1.63;;;;;;;9.84;76.99;100177.84;4985302;28;20077;-46
2021/10/26 07:44:30;;;;;;;6.13;2.03;;;;;;;9.88;76.61;100173.53;4987592;28;20685;-47
2021/10/26 07:46:59;;;;;;;9.82;1.73;;;;;;;9.89;77.18;100180.44;4993146;28;20104;-47
2021/10/26 07:49:28;;;;;;;7.28;2.30;;;;;;;9.94;77.34;100180.44;4979669;28;20062;-47
2021/10/26 07:51:58;;;;;;;7.88;1.75;;;;;;;9.96;77.27;100184.75;4984770;28;20050;-47
2021/10/26 07:54:25;;;;;;;7.05;2.10;;;;;;;9.99;76.78;100187.38;4984904;28;20050;-49
2021/10/26 07:56:59;;;;;;;5.38;2.10;;;;;;;10.01;77.12;100180.47;4991709;28;20054;-47
2021/10/26 07:59:27;;;;;;;7.70;1.77;;;;;;;10.03;77.08;100185.63;4997239;28;20050;-47
2021/10/26 08:01:53;;;;;;;9.13;2.25;;;;;;;10.06;76.72;100174.44;4987226;28;20112;-47
2021/10/26 08:04:20;;;;;;;5.15;1.65;;;;;;;10.09;77.42;100179.59;4985363;28;20050;-47
2021/10/26 08:06:47;;;;;;;6.30;1.70;;;;;;;10.11;77.29;100175.31;4981666;28;20046;-48
2021/10/26 08:09:16;;;;;;;4.72;1.65;;;;;;;10.13;77.02;100170.97;5000511;28;20042;-48
2021/10/26 08:11:43;;;;;;;5.95;1.88;;;;;;;10.21;76.55;100173.59;4985379;28;20129;-48
2021/10/26 08:14:10;;;;;;;2.97;1.30;;;;;;;10.28;76.90;100172.72;4995551;28;20054;-47
2021/10/26 08:16:37;;;;;;;4.38;1.20;;;;;;;10.34;77.01;100177.06;4993658;28;20158;-47
2021/10/26 08:19:05;;;;;;;4.97;1.75;;;;;;;10.43;76.93;100177.03;4994372;28;20128;-48
2021/10/26 08:21:32;;;;;;;6.30;1.55;;;;;;;10.52;77.13;100182.25;4983927;28;20101;-47
2021/10/26 08:24:00;;;;;;;3.33;1.45;;;;;;;10.57;76.38;100171.03;4983828;28;20113;-49
2021/10/26 08:26:34;;;;;;;3.47;1.65;;;;;;;10.62;76.46;100171.88;4992282;28;20454;-48
2021/10/26 08:29:11;;;;;;;3.15;1.35;;;;;;;10.66;76.34;100173.59;4989174;28;20042;-48
2021/10/26 08:32:01;;;;;;;3.03;1.35;;;;;;;10.67;76.09;100171.03;4987156;28;20046;-48
2021/10/26 08:37:13;;;;;;;4.13;0.88;;;;;;;10.76;76.38;100157.19;4996379;28;20421;-49
2021/10/26 08:39:41;;;;;;;2.83;1.10;;;;;;;10.89;76.73;100159.75;4997948;28;20054;-47
2021/10/26 08:42:13;;;;;;;3.90;1.45;;;;;;;11.00;76.48;100155.41;4983465;28;20054;-48
2021/10/26 08:44:41;;;;;;;4.00;1.00;;;;;;;11.14;76.19;100155.38;4988344;28;20113;-51
2021/10/26 08:47:08;;;;;;;5.85;1.30;;;;;;;11.18;76.12;100151.06;4990525;28;20046;-48
2021/10/26 08:49:37;;;;;;;3.90;0.93;;;;;;;11.27;75.99;100156.19;4990519;28;20434;-48
2021/10/26 08:52:05;;;;;;;9.70;1.67;;;;;;;11.31;76.70;100157.91;4984628;28;20050;-50
2021/10/26 08:54:32;;;;;;;5.50;1.15;;;;;;;11.35;75.37;100153.53;4985092;28;20105;-48
2021/10/26 08:56:59;;;;;;;5.05;0.80;;;;;;;11.34;75.56;100153.59;4999306;28;20462;-47
2021/10/26 08:59:26;;;;;;;3.63;1.25;;;;;;;11.36;76.15;100149.22;4984436;28;20055;-48
2021/10/26 09:01:55;;;;;;;4.63;0.93;;;;;;;11.37;75.31;100148.34;4985593;28;20061;-48
2021/10/26 09:04:30;;;;;;;3.42;1.25;;;;;;;11.38;76.55;100148.34;4983042;28;20070;-44
2021/10/26 09:07:04;;;;;;;5.82;1.08;;;;;;;11.41;76.45;100150.94;4983289;28;20050;-46
2021/10/26 09:09:35;;;;;;;6.43;0.82;;;;;;;11.49;76.39;100155.22;4994754;28;20050;-46
2021/10/26 09:17:56;;;;;;;2.35;0.80;;;;;;;11.97;75.50;100136.78;4995742;28;20074;-48
2021/10/26 09:20:26;;;;;;;2.78;0.90;;;;;;;12.29;74.85;100146.09;4985792;28;20058;-45
2021/10/26 09:22:56;;;;;;;3.35;0.63;;;;;;;12.43;74.88;100155.50;4985080;28;20057;-44
2021/10/26 09:25:37;;;;;;;3.85;0.95;;;;;;;12.47;75.05;100146.81;4990040;28;20050;-46
2021/10/26 09:28:20;;;;;;;6.07;1.05;;;;;;;12.49;74.28;100155.44;4982176;28;20498;-47
2021/10/26 09:31:07;;;;;;;3.85;0.60;;;;;;;12.46;74.02;100161.53;4988323;28;20050;-45
2021/10/26 09:33:38;;;;;;;2.30;0.63;;;;;;;12.45;74.13;100154.63;4979716;28;20144;-45
2021/10/26 09:36:26;;;;;;;3.67;0.93;;;;;;;12.38;73.93;100152.94;4985198;28;20100;-47
2021/10/26 09:39:10;;;;;;;3.53;0.60;;;;;;;12.36;74.24;100154.69;4988655;28;20050;-45
2021/10/26 09:41:57;;;;;;;6.60;0.90;;;;;;;12.36;73.72;100148.66;4983038;28;20053;-46
2021/10/26 09:44:27;;;;;;;4.28;1.00;;;;;;;12.34;73.63;100131.31;4985307;28;20050;-48
2021/10/26 09:46:58;;;;;;;2.08;1.05;;;;;;;12.34;74.93;100125.28;4986969;28;20093;-45
2021/10/26 09:49:26;;;;;;;3.97;1.02;;;;;;;12.36;74.70;100135.66;4984175;28;20481;-47
2021/10/26 09:52:16;;;;;;;3.25;0.60;;;;;;;12.38;74.38;100136.50;4986141;28;20525;-44
2021/10/26 09:54:44;;;;;;;;;;;;;;;12.32;74.02;100127.88;4987452;28;20402;-46
2021/10/26 09:57:13;;;;;;;2.60;0.68;;;;;;;12.51;74.21;100130.31;4991171;28;20506;-47
2021/10/26 09:59:53;;;;;;;4.47;1.13;;;;;;;12.68;74.52;100134.47;4990725;28;20058;-46
2021/10/26 10:02:22;;;;;;;5.13;1.08;;;;;;;12.93;73.51;100129.00;4980158;28;20101;-49
2021/10/26 10:05:00;;;;;;;4.93;0.80;;;;;;;13.02;73.80;100128.94;4999991;28;20054;-47
2021/10/26 10:07:30;;;;;;;3.35;1.20;;;;;;;13.07;73.67;100132.31;4984637;28;20099;-49
2021/10/26 10:10:00;;;;;;;2.28;0.73;;;;;;;13.06;73.52;100135.81;4990521;28;20054;-46
2021/10/26 10:12:26;;;;;;;2.75;1.00;;;;;;;13.04;73.70;100141.91;4976174;28;20467;-46
2021/10/26 10:14:54;;;;;;;1.50;0.70;;;;;;;12.98;72.72;100132.44;4991010;28;20058;-47
2021/10/26 10:17:24;;;;;;;2.33;0.82;;;;;;;12.94;73.79;100130.75;4990512;28;20046;-48
2021/10/26 10:19:53;;;;;;;1.45;0.98;;;;;;;12.91;73.23;100141.19;4988720;28;20046;-47
2021/10/26 10:22:25;;;;;;;3.92;1.30;;;;;;;12.89;73.99;100156.78;4993084;28;20054;-47
2021/10/26 10:24:56;;;;;;;3.60;0.93;;;;;;;12.91;74.24;100161.97;4988627;28;20182;-47
2021/10/26 10:27:26;;;;;;;2.25;0.93;;;;;;;12.94;74.01;100151.56;4993895;28;20170;-46
2021/10/26 10:29:54;;;;;;;2.67;0.70;;;;;;;12.92;73.07;100153.28;4991280;28;20050;-46
2021/10/26 10:32:25;;;;;;;3.40;1.30;;;;;;;12.98;73.29;100161.88;4983571;28;20054;-47
2021/10/26 10:34:53;;;;;;;5.47;1.20;;;;;;;13.05;72.82;100157.50;4995327;28;20550;-46
2021/10/26 10:37:23;;;;;;;2.22;0.80;;;;;;;13.14;73.60;100153.06;4989382;28;20050;-46
2021/10/26 10:39:54;;;;;;;2.63;0.50;;;;;;;13.24;73.96;100147.72;4992940;28;20092;-46
2021/10/26 10:42:23;;;;;;;5.55;0.88;;;;;;;13.34;73.60;100156.28;4991986;28;20054;-46
2021/10/26 10:44:52;;;;;;;8.57;0.77;;;;;;;13.43;73.90;100163.13;4990994;28;20113;-47
2021/10/26 10:47:32;;;;;;;2.22;0.60;;;;;;;13.46;72.66;100149.19;4995909;28;20100;-47
2021/10/26 10:50:00;;;;;;;3.95;0.80;;;;;;;13.53;72.42;100161.28;4988377;28;20097;-48
2021/10/26 10:52:32;;;;;;;4.05;0.75;;;;;;;13.54;73.55;100157.78;5005158;28;20054;-47
2021/10/26 10:55:20;;;;;;;4.50;0.75;;;;;;;13.56;73.11;100161.25;4990911;28;20046;-48
2021/10/26 10:57:47;;;;;;;6.68;0.88;;;;;;;13.55;73.38;100158.66;4998041;28;20050;-46
2021/10/26 11:00:25;;;;;;;3.42;1.17;;;;;;;13.54;72.23;100141.34;4987750;28;20077;-47
2021/10/26 11:02:55;;;;;;;6.03;1.13;;;;;;;13.60;72.54;100144.72;4984689;28;20054;-47
2021/10/26 11:05:41;;;;;;;4.70;0.77;;;;;;;13.64;72.67;100152.47;4994153;28;20077;-46
2021/10/26 11:08:10;;;;;;;2.83;1.10;;;;;;;13.71;72.71;100146.31;4993091;28;20042;-50
2021/10/26 11:10:58;;;;;;;4.72;0.73;;;;;;;13.75;73.02;100140.19;4989661;28;20510;-48
2021/10/26 11:13:28;;;;;;;2.80;1.38;;;;;;;13.90;72.82;100144.28;4985715;28;20081;-46
2021/10/26 11:15:58;;;;;;;6.35;0.52;;;;;;;13.99;72.32;100143.28;4985846;28;20109;-46
2021/10/26 11:18:45;;;;;;;3.92;0.70;;;;;;;14.03;72.08;100142.34;4990504;28;20058;-46
2021/10/26 11:21:34;;;;;;;7.05;0.70;;;;;;;14.07;72.37;100146.63;4987398;28;20092;-46
2021/10/26 11:24:04;;;;;;;;;;;;;;;14.07;71.69;100141.41;4988859;28;20043;-47
2021/10/26 11:26:42;;;;;;;2.80;0.80;;;;;;;14.16;72.01;100129.13;4991487;28;19948;-47
2021/10/26 11:29:12;;;;;;;4.82;1.10;;;;;;;14.23;71.94;100130.75;4987343;28;20054;-47
2021/10/26 11:31:43;;;;;;;3.38;0.98;;;;;;;14.26;71.51;100130.72;4992586;28;20112;-46
2021/10/26 11:34:28;;;;;;;5.03;0.90;;;;;;;14.30;71.86;100132.38;4994598;28;20107;-46
2021/10/26 11:37:02;;;;;;;3.50;1.05;;;;;;;14.40;71.15;100135.69;4986525;28;20054;-46
2021/10/26 11:39:30;;;;;;;4.65;1.60;;;;;;;14.50;70.97;100131.16;4992343;28;20049;-46
2021/10/26 11:41:59;;;;;;;2.85;1.00;;;;;;;14.60;71.71;100140.56;4986184;28;20120;-47
2021/10/26 11:44:27;;;;;;;8.40;1.35;;;;;;;14.72;71.29;100139.44;4982367;28;20573;-46
2021/10/26 11:46:58;;;;;;;7.65;1.20;;;;;;;14.91;70.81;100144.34;4987374;28;20046;-47
2021/10/26 11:49:27;;;;;;;2.67;0.85;;;;;;;15.01;70.88;100130.25;4986421;28;20090;-46